Terminal Aerodrome Forecast
Issued by NWS Louisville, KY

Home | Current Version | Previous Version | Text Only | Print | Product List | Glossary On
Versions: 1 2 3 4 5 6 7 8 9 10 11 12 13 14 15 16 17 18 19
113
FTUS43 KLMK 082320
TAFLEX
TAF
KLEX 082320Z 0900/0924 27010G20KT 4SM -SHSN BR OVC015
      TEMPO 0901/0905 2SM -SN BR
     FM090600 27008KT 6SM BR VCSH OVC022
     FM091500 27010KT P6SM VCSH OVC025
     FM092200 27009KT 5SM -SHSN OVC018=

USA.gov is the U.S. government's official web portal to all federal, state and local government web resources and services.